Time;durP1;ratioP1;P1;durP2;ratioP2;P2;SDS_P1;SDS_P2;PMS_P1;PMS_P2;Temp;Humidity;BMP_temperature;BMP_pressure;BME280_temperature;BME280_humidity;BME280_pressure;Samples;Min_cycle;Max_cycle;Signal;HPM_P1;HPM_P2
2023/08/31 00:01:21;;;;;;;1.77;1.02;;;16.00;62.30;17.90;100621.00;;;;5069729;28;20215;-83
2023/08/31 00:03:48;;;;;;;1.75;1.30;;;16.00;62.40;17.80;100616.00;;;;5084076;28;20190;-83
2023/08/31 00:06:15;;;;;;;1.33;1.02;;;16.00;62.50;17.80;100612.00;;;;5088700;28;20198;-83
2023/08/31 00:08:42;;;;;;;0.98;0.70;;;16.00;62.50;17.80;100616.00;;;;5082297;28;20199;-83
2023/08/31 00:11:10;;;;;;;1.40;1.13;;;16.00;62.60;17.80;100605.00;;;;5081559;28;20571;-83
2023/08/31 00:13:38;;;;;;;1.40;1.30;;;16.00;62.60;17.70;100616.00;;;;5086974;28;20228;-83
2023/08/31 00:16:05;;;;;;;1.15;1.05;;;15.90;62.50;17.70;100618.00;;;;5089086;28;20570;-82
2023/08/31 00:18:32;;;;;;;2.50;1.05;;;15.90;62.50;17.70;100614.00;;;;5087609;28;20197;-83
2023/08/31 00:20:59;;;;;;;1.17;1.05;;;15.90;62.50;17.70;100613.00;;;;5085468;28;20198;-83
2023/08/31 00:23:26;;;;;;;4.72;1.50;;;15.90;62.50;17.70;100612.00;;;;5088711;28;20305;-83
2023/08/31 00:25:53;;;;;;;2.53;1.38;;;15.90;62.60;17.70;100611.00;;;;5088654;28;20197;-83
2023/08/31 00:28:21;;;;;;;1.20;1.10;;;15.80;62.60;17.60;100617.00;;;;5088740;28;20233;-83
2023/08/31 00:30:51;;;;;;;1.38;1.27;;;15.80;62.50;17.60;100604.00;;;;5087892;28;20198;-83
2023/08/31 00:33:19;;;;;;;1.50;1.08;;;15.80;62.60;17.60;100600.00;;;;5069000;28;20198;-82
2023/08/31 00:35:46;;;;;;;1.30;1.05;;;15.80;62.60;17.60;100594.00;;;;5076426;28;20198;-82
2023/08/31 00:38:14;;;;;;;1.35;0.95;;;15.70;62.70;17.60;100606.00;;;;5087421;28;20209;-82
2023/08/31 00:40:44;;;;;;;2.05;1.13;;;15.70;62.80;17.60;100600.00;;;;5088756;28;20202;-82
2023/08/31 00:43:12;;;;;;;1.75;1.40;;;15.70;62.80;17.50;100596.00;;;;5087372;28;20218;-82
2023/08/31 00:45:40;;;;;;;3.88;1.70;;;15.70;62.80;17.50;100605.00;;;;5088145;28;20190;-82
2023/08/31 00:48:09;;;;;;;1.88;1.30;;;15.70;62.90;17.50;100602.00;;;;5088216;28;20213;-82
2023/08/31 00:50:37;;;;;;;2.72;1.08;;;15.70;63.00;17.50;100604.00;;;;5070360;28;20286;-83
2023/08/31 00:53:04;;;;;;;1.33;1.10;;;15.70;63.10;17.50;100593.00;;;;5084504;28;20233;-82
2023/08/31 00:55:33;;;;;;;2.08;1.33;;;15.70;63.20;17.50;100601.00;;;;5087470;28;20194;-83
2023/08/31 00:58:01;;;;;;;2.25;1.00;;;15.70;63.30;17.50;100609.00;;;;5086404;28;20197;-82
2023/08/31 01:00:54;;;;;;;1.63;1.00;;;15.70;63.30;17.40;100602.00;;;;5074256;28;20433;-83
2023/08/31 01:03:34;;;;;;;1.40;1.10;;;15.70;63.50;17.40;100602.00;;;;5068088;28;20218;-83
2023/08/31 01:06:15;;;;;;;1.38;1.23;;;15.70;63.40;17.40;100604.00;;;;5078116;28;20205;-83
2023/08/31 01:08:53;;;;;;;7.00;1.40;;;15.70;63.30;17.50;100606.00;;;;5081174;28;20682;-83
2023/08/31 01:11:33;;;;;;;2.25;1.40;;;15.70;63.40;17.40;100606.00;;;;5088034;28;20575;-83
2023/08/31 01:14:11;;;;;;;2.55;1.70;;;15.70;63.50;17.50;100613.00;;;;5088784;28;20235;-83
2023/08/31 01:16:43;;;;;;;1.48;1.38;;;15.70;63.60;17.50;100618.00;;;;5085281;28;20194;-82
2023/08/31 01:19:31;;;;;;;1.63;1.33;;;15.70;63.70;17.50;100612.00;;;;5087244;28;20247;-83
2023/08/31 01:22:04;;;;;;;1.45;1.33;;;15.70;64.10;17.60;100607.00;;;;5089095;28;20214;-83
2023/08/31 01:24:33;;;;;;;2.38;1.95;;;15.80;64.10;17.60;100606.00;;;;5088726;28;20576;-83
2023/08/31 01:27:00;;;;;;;4.10;1.50;;;15.80;64.20;17.70;100604.00;;;;5086240;28;20206;-82
2023/08/31 01:29:30;;;;;;;1.95;1.58;;;15.80;64.30;17.70;100609.00;;;;5088077;28;20209;-83
2023/08/31 01:31:57;;;;;;;3.42;1.98;;;15.80;64.40;17.70;100616.00;;;;5088594;28;20202;-82
2023/08/31 01:34:24;;;;;;;4.38;1.83;;;15.90;64.50;17.70;100601.00;;;;5074230;28;20214;-82
2023/08/31 01:37:01;;;;;;;2.95;2.20;;;15.90;64.60;17.70;100606.00;;;;5080437;28;20190;-82
2023/08/31 01:39:38;;;;;;;2.88;2.20;;;15.90;64.70;17.70;100610.00;;;;5086528;28;20228;-82
2023/08/31 01:42:08;;;;;;;3.78;2.08;;;16.00;64.70;17.80;100599.00;;;;5069297;28;20218;-82
2023/08/31 01:44:37;;;;;;;3.38;2.75;;;16.00;64.80;17.80;100587.00;;;;5072189;28;20195;-83
2023/08/31 01:47:07;;;;;;;4.50;3.13;;;16.00;65.00;17.80;100604.00;;;;5084193;28;20247;-82
2023/08/31 01:49:38;;;;;;;6.63;3.03;;;16.10;65.30;17.80;100605.00;;;;5090777;28;20202;-82
2023/08/31 01:52:06;;;;;;;4.15;2.78;;;16.10;65.50;17.80;100597.00;;;;5072631;28;20643;-82
2023/08/31 01:54:37;;;;;;;2.88;2.60;;;16.10;65.50;17.90;100608.00;;;;5088008;28;20202;-82
2023/08/31 01:57:05;;;;;;;5.18;3.10;;;16.10;65.60;17.90;100601.00;;;;5089046;28;22160;-83
2023/08/31 01:59:33;;;;;;;6.07;3.45;;;16.20;65.60;17.90;100604.00;;;;5091679;28;20194;-83
2023/08/31 02:02:00;;;;;;;5.90;3.42;;;16.20;65.80;18.00;100594.00;;;;5092641;28;20194;-82
2023/08/31 02:04:27;;;;;;;4.57;3.30;;;16.20;65.90;18.00;100601.00;;;;5089848;28;20651;-83
2023/08/31 02:06:54;;;;;;;4.70;3.53;;;16.30;65.90;18.00;100599.00;;;;5080669;28;20217;-83
2023/08/31 02:09:21;;;;;;;3.70;3.15;;;16.30;65.80;18.00;100602.00;;;;5091141;28;21042;-83
2023/08/31 02:11:50;;;;;;;3.97;3.42;;;16.30;65.90;18.00;100612.00;;;;5092354;28;20197;-83
2023/08/31 02:14:17;;;;;;;5.97;2.90;;;16.40;65.90;18.10;100609.00;;;;5091076;28;20199;-83
2023/08/31 02:16:44;;;;;;;2.88;2.58;;;16.40;65.90;18.10;100615.00;;;;5090731;28;20198;-83
2023/08/31 02:19:11;;;;;;;3.33;2.97;;;16.40;65.80;18.20;100610.00;;;;5090706;28;20190;-83
2023/08/31 02:21:39;;;;;;;4.97;2.97;;;16.50;65.90;18.20;100614.00;;;;5071187;28;20218;-83
2023/08/31 02:24:07;;;;;;;5.38;3.30;;;16.50;65.80;18.20;100612.00;;;;5073395;28;20219;-83
2023/08/31 02:26:36;;;;;;;4.43;2.72;;;16.50;65.90;18.20;100612.00;;;;5092265;28;20201;-84
2023/08/31 02:29:06;;;;;;;2.92;2.45;;;16.50;65.90;18.20;100619.00;;;;5091822;28;20239;-83
2023/08/31 02:31:37;;;;;;;4.35;2.30;;;16.60;66.00;18.20;100625.00;;;;5090515;28;20738;-83
2023/08/31 02:34:04;;;;;;;3.08;2.40;;;16.60;66.00;18.30;100627.00;;;;5091139;28;20231;-83
2023/08/31 02:36:31;;;;;;;3.47;2.28;;;16.60;65.90;18.30;100626.00;;;;5089793;28;20267;-83
2023/08/31 02:38:58;;;;;;;4.10;2.83;;;16.70;66.00;18.30;100629.00;;;;5090622;28;20574;-83
2023/08/31 02:41:25;;;;;;;2.25;2.05;;;16.60;65.90;18.40;100622.00;;;;5081214;28;20207;-82
2023/08/31 02:43:52;;;;;;;3.15;2.22;;;16.70;66.00;18.40;100621.00;;;;5073195;28;20215;-83
2023/08/31 02:46:21;;;;;;;2.97;2.35;;;16.70;66.00;18.40;100608.00;;;;5075958;28;20306;-83
2023/08/31 02:48:48;;;;;;;1.83;1.38;;;16.70;65.90;18.40;100615.00;;;;5091401;28;20631;-83
2023/08/31 02:51:15;;;;;;;2.65;2.03;;;16.70;65.90;18.40;100613.00;;;;5091552;28;20198;-83
2023/08/31 02:53:42;;;;;;;4.13;1.80;;;16.80;65.90;18.40;100601.00;;;;5087631;28;20229;-83
2023/08/31 02:56:09;;;;;;;2.05;1.45;;;16.70;65.90;18.50;100606.00;;;;5079779;28;20556;-83
2023/08/31 02:58:36;;;;;;;1.95;1.45;;;16.80;65.90;18.50;100608.00;;;;5083412;28;20263;-84
2023/08/31 03:01:11;;;;;;;2.15;1.70;;;16.80;65.90;18.40;100597.00;;;;5088226;28;20226;-82
2023/08/31 03:03:40;;;;;;;2.30;1.67;;;16.80;65.90;18.50;100604.00;;;;5090358;28;20286;-84
2023/08/31 03:06:08;;;;;;;2.78;1.95;;;16.90;65.90;18.50;100602.00;;;;5089872;28;20199;-83
2023/08/31 03:08:36;;;;;;;2.47;1.80;;;16.90;65.90;18.50;100597.00;;;;5090098;28;20213;-83
2023/08/31 03:11:04;;;;;;;2.42;1.45;;;16.90;65.90;18.50;100603.00;;;;5089816;28;20190;-82
2023/08/31 03:13:32;;;;;;;2.38;1.63;;;16.90;65.90;18.60;100605.00;;;;5090844;28;20210;-83
2023/08/31 03:16:00;;;;;;;2.05;1.55;;;16.90;65.90;18.60;100605.00;;;;5085434;28;20621;-83
2023/08/31 03:18:27;;;;;;;1.63;1.52;;;17.00;65.90;18.60;100611.00;;;;5089023;28;20202;-83
2023/08/31 03:20:56;;;;;;;3.42;1.60;;;17.00;65.90;18.60;100587.00;;;;5090308;28;20251;-82
2023/08/31 03:23:26;;;;;;;2.20;1.95;;;17.00;65.90;18.60;100606.00;;;;5088479;28;20225;-83
2023/08/31 03:25:53;;;;;;;3.20;1.63;;;17.00;65.90;18.60;100609.00;;;;5073348;28;20209;-83
2023/08/31 03:28:21;;;;;;;3.60;1.98;;;17.00;65.80;18.60;100610.00;;;;5089568;28;20214;-83
2023/08/31 03:30:56;;;;;;;2.10;1.50;;;17.00;65.80;18.60;100611.00;;;;5090886;28;20190;-83
2023/08/31 03:33:23;;;;;;;1.95;1.50;;;17.00;65.90;18.70;100607.00;;;;5086612;28;20201;-83
2023/08/31 03:35:50;;;;;;;2.33;1.20;;;17.10;65.80;18.70;100615.00;;;;5086803;28;20571;-82
2023/08/31 03:38:18;;;;;;;1.70;1.45;;;17.10;65.80;18.70;100615.00;;;;5073285;28;20208;-83
2023/08/31 03:40:55;;;;;;;1.67;1.30;;;17.10;65.80;18.60;100609.00;;;;5089037;28;20213;-83
2023/08/31 03:43:22;;;;;;;3.28;1.17;;;17.10;65.90;18.70;100615.00;;;;5089271;28;20218;-83
2023/08/31 03:45:49;;;;;;;2.15;1.40;;;17.10;65.70;18.70;100607.00;;;;5089960;28;20194;-83
2023/08/31 03:48:16;;;;;;;2.40;1.30;;;17.10;65.70;18.80;100617.00;;;;5085112;28;20211;-82
2023/08/31 03:50:43;;;;;;;2.47;1.38;;;17.10;65.70;18.80;100612.00;;;;5085940;28;20206;-83
2023/08/31 03:53:10;;;;;;;2.60;1.40;;;17.10;65.70;18.80;100612.00;;;;5087698;28;20229;-83
2023/08/31 03:55:38;;;;;;;3.08;1.70;;;17.10;65.70;18.80;100616.00;;;;5089746;28;20694;-83
2023/08/31 03:58:05;;;;;;;3.45;1.58;;;17.10;65.80;18.80;100612.00;;;;5069707;28;20202;-83
2023/08/31 04:00:33;;;;;;;2.53;1.60;;;17.20;65.80;18.80;100611.00;;;;5076128;28;20218;-83
2023/08/31 04:03:00;;;;;;;2.08;1.77;;;17.20;65.80;18.80;100613.00;;;;5089864;28;20556;-83
2023/08/31 04:05:27;;;;;;;2.75;1.88;;;17.20;65.90;18.90;100613.00;;;;5081072;28;20209;-83
2023/08/31 04:07:54;;;;;;;3.78;2.00;;;17.20;65.90;18.90;100618.00;;;;5087859;28;20198;-83
2023/08/31 04:10:26;;;;;;;2.60;2.13;;;17.20;65.90;18.80;100627.00;;;;5089906;28;20273;-82
2023/08/31 04:12:54;;;;;;;2.08;1.77;;;17.20;66.10;18.90;100622.00;;;;5070320;28;20207;-82
2023/08/31 04:15:21;;;;;;;5.68;2.38;;;17.20;66.00;18.90;100640.00;;;;5087429;28;20213;-83
2023/08/31 04:17:49;;;;;;;2.95;2.08;;;17.30;66.10;19.00;100638.00;;;;5089748;28;20212;-82
2023/08/31 04:20:17;;;;;;;2.90;2.22;;;17.30;66.10;19.00;100650.00;;;;5083102;28;20195;-83
2023/08/31 04:22:44;;;;;;;2.85;2.55;;;17.30;66.20;19.00;100649.00;;;;5089451;28;20590;-84
2023/08/31 04:25:10;;;;;;;3.30;2.72;;;17.30;66.20;19.00;100663.00;;;;5084480;28;20203;-82
2023/08/31 04:27:39;;;;;;;4.38;3.13;;;17.30;66.20;19.00;100661.00;;;;5089744;28;20194;-82
2023/08/31 04:30:08;;;;;;;4.18;3.50;;;17.40;66.30;19.00;100660.00;;;;5078806;28;20203;-81
2023/08/31 04:32:36;;;;;;;3.80;3.40;;;17.40;66.40;19.10;100659.00;;;;5089467;28;20205;-82
2023/08/31 04:35:05;;;;;;;7.28;3.60;;;17.40;66.40;19.10;100658.00;;;;5086656;28;20198;-82
2023/08/31 04:37:32;;;;;;;4.32;3.92;;;17.50;66.50;19.10;100669.00;;;;5088315;28;20224;-82
2023/08/31 04:39:59;;;;;;;5.72;4.15;;;17.40;66.50;19.10;100672.00;;;;5076970;28;20202;-83
2023/08/31 04:42:26;;;;;;;4.55;3.50;;;17.50;66.50;19.10;100670.00;;;;5084937;28;20280;-84
2023/08/31 04:44:53;;;;;;;6.95;4.32;;;17.50;66.60;19.10;100675.00;;;;5087090;28;20222;-84
2023/08/31 04:47:22;;;;;;;5.45;4.85;;;17.50;66.60;19.20;100676.00;;;;5088773;28;20202;-84
2023/08/31 04:49:49;;;;;;;6.40;5.18;;;17.50;66.70;19.20;100680.00;;;;5089052;28;20727;-83
2023/08/31 04:52:15;;;;;;;5.80;4.85;;;17.50;66.60;19.20;100686.00;;;;5087525;28;20225;-82
2023/08/31 04:54:42;;;;;;;7.15;5.32;;;17.50;66.60;19.20;100679.00;;;;5085367;28;20656;-83
2023/08/31 04:57:10;;;;;;;6.32;5.35;;;17.60;66.70;19.20;100696.00;;;;5072462;28;20191;-83
2023/08/31 04:59:37;;;;;;;6.47;5.88;;;17.60;66.70;19.20;100701.00;;;;5073975;28;20265;-82
2023/08/31 05:02:04;;;;;;;6.85;5.40;;;17.60;66.80;19.20;100705.00;;;;5086617;28;20202;-82
2023/08/31 05:04:33;;;;;;;5.93;5.32;;;17.50;66.70;19.20;100708.00;;;;5082105;28;20222;-82
2023/08/31 05:07:00;;;;;;;5.95;5.35;;;17.60;66.80;19.20;100703.00;;;;5084518;28;20198;-83
2023/08/31 05:09:32;;;;;;;5.55;4.82;;;17.60;66.80;19.20;100710.00;;;;5088164;28;20205;-81
2023/08/31 05:11:59;;;;;;;6.40;5.57;;;17.60;66.80;19.20;100717.00;;;;5087752;28;20210;-82
2023/08/31 05:14:26;;;;;;;6.95;5.85;;;17.60;66.80;19.20;100709.00;;;;5085562;28;20894;-82
2023/08/31 05:16:53;;;;;;;6.25;5.40;;;17.60;66.70;19.20;100701.00;;;;5077842;28;20191;-80
2023/08/31 05:19:20;;;;;;;6.80;5.97;;;17.60;66.70;19.20;100706.00;;;;5073134;28;20203;-81
2023/08/31 05:21:49;;;;;;;6.18;5.57;;;17.60;66.80;19.10;100709.00;;;;5084040;28;20190;-80
2023/08/31 05:24:16;;;;;;;5.65;5.15;;;17.60;66.80;19.20;100713.00;;;;5085551;28;20221;-81
2023/08/31 05:26:43;;;;;;;6.45;5.40;;;17.60;66.80;19.20;100712.00;;;;5088680;28;20205;-81
2023/08/31 05:29:10;;;;;;;6.18;5.57;;;17.60;66.90;19.20;100709.00;;;;5081584;28;20619;-81
2023/08/31 05:31:37;;;;;;;7.78;5.68;;;17.60;66.90;19.20;100706.00;;;;5081930;28;20209;-81
2023/08/31 05:34:04;;;;;;;8.30;5.13;;;17.60;67.00;19.20;100710.00;;;;5077873;28;20577;-80
2023/08/31 05:36:31;;;;;;;6.88;5.63;;;17.60;67.00;19.20;100704.00;;;;5081842;28;20199;-80
2023/08/31 05:38:59;;;;;;;5.65;4.95;;;17.60;67.00;19.20;100708.00;;;;5090690;28;20590;-80
2023/08/31 05:41:26;;;;;;;6.60;5.85;;;17.60;67.10;19.20;100719.00;;;;5089220;28;20190;-79
2023/08/31 05:43:53;;;;;;;5.78;5.20;;;17.60;67.00;19.20;100721.00;;;;5091064;28;20253;-79
2023/08/31 05:46:23;;;;;;;6.82;6.13;;;17.60;67.10;19.30;100717.00;;;;5091112;28;20217;-81
2023/08/31 05:48:52;;;;;;;7.05;5.85;;;17.60;67.10;19.30;100720.00;;;;5085440;28;20201;-80
2023/08/31 05:51:19;;;;;;;6.35;5.75;;;17.60;67.10;19.30;100723.00;;;;5087906;28;20226;-81
2023/08/31 05:53:47;;;;;;;5.57;5.07;;;17.60;67.20;19.30;100724.00;;;;5076260;28;20230;-80
2023/08/31 05:56:15;;;;;;;6.22;5.63;;;17.60;67.20;19.30;100719.00;;;;5084455;28;20194;-81
2023/08/31 05:58:42;;;;;;;8.05;5.82;;;17.70;67.40;19.40;100727.00;;;;5089118;28;20576;-81
2023/08/31 06:01:09;;;;;;;6.38;5.78;;;17.70;67.40;19.40;100746.00;;;;5088754;28;20309;-81
2023/08/31 06:03:36;;;;;;;7.35;6.20;;;17.70;67.60;19.50;100741.00;;;;5087116;28;20222;-80
2023/08/31 06:06:03;;;;;;;5.55;4.93;;;17.70;67.70;19.50;100744.00;;;;5087791;28;20202;-80
2023/08/31 06:08:30;;;;;;;7.97;5.65;;;17.80;67.60;19.50;100741.00;;;;5090127;28;20199;-80
2023/08/31 06:10:57;;;;;;;5.78;5.07;;;17.80;67.50;19.50;100745.00;;;;5091479;28;20186;-80
2023/08/31 06:13:26;;;;;;;5.13;4.63;;;17.80;67.40;19.50;100750.00;;;;5090446;28;20336;-80
2023/08/31 06:15:55;;;;;;;6.43;5.00;;;17.80;67.40;19.50;100756.00;;;;5090893;28;20660;-80
2023/08/31 06:18:22;;;;;;;5.97;5.38;;;17.80;67.30;19.60;100760.00;;;;5080823;28;20305;-81
2023/08/31 06:20:50;;;;;;;5.63;4.95;;;17.90;67.40;19.50;100765.00;;;;5083504;28;20194;-80
2023/08/31 06:23:17;;;;;;;5.95;4.72;;;17.90;67.30;19.60;100761.00;;;;5089088;28;20564;-80
2023/08/31 06:25:45;;;;;;;4.78;4.38;;;17.90;67.30;19.60;100769.00;;;;5082311;28;20203;-79
2023/08/31 06:28:12;;;;;;;5.70;4.95;;;17.90;67.40;19.60;100766.00;;;;5080797;28;21017;-80
2023/08/31 06:30:46;;;;;;;6.07;5.50;;;17.90;67.30;19.60;100776.00;;;;5076986;28;20919;-82
2023/08/31 06:33:13;;;;;;;5.80;5.13;;;17.90;67.30;19.60;100771.00;;;;5082611;28;20203;-80
2023/08/31 06:35:40;;;;;;;6.15;4.65;;;17.90;67.20;19.60;100775.00;;;;5083949;28;20210;-80
2023/08/31 06:38:08;;;;;;;5.85;4.80;;;18.00;67.20;19.60;100775.00;;;;5082860;28;20194;-80
2023/08/31 06:40:35;;;;;;;6.10;5.35;;;17.90;67.20;19.70;100769.00;;;;5088917;28;20710;-80
2023/08/31 06:43:03;;;;;;;4.80;4.40;;;17.90;67.20;19.60;100768.00;;;;5090394;28;20563;-81
2023/08/31 06:45:30;;;;;;;6.10;4.13;;;18.00;67.30;19.70;100773.00;;;;5087208;28;20332;-80
2023/08/31 06:47:59;;;;;;;5.18;4.32;;;18.00;67.20;19.70;100778.00;;;;5089493;28;20840;-80
2023/08/31 06:50:26;;;;;;;6.03;4.75;;;18.00;67.30;19.70;100771.00;;;;5085698;28;20191;-80
2023/08/31 06:52:53;;;;;;;5.60;4.53;;;18.00;67.30;19.70;100775.00;;;;5085471;28;20222;-80
2023/08/31 06:55:20;;;;;;;6.13;5.15;;;18.00;67.20;19.70;100773.00;;;;5085625;28;20206;-81
2023/08/31 06:57:47;;;;;;;5.72;4.47;;;18.00;67.20;19.70;100783.00;;;;5088500;28;20198;-81
2023/08/31 07:00:15;;;;;;;4.47;4.07;;;18.00;67.30;19.70;100781.00;;;;5090121;28;20206;-81
2023/08/31 07:02:43;;;;;;;5.80;4.15;;;18.00;67.40;19.70;100789.00;;;;5085719;28;20285;-81
2023/08/31 07:05:12;;;;;;;5.57;4.40;;;18.10;67.50;19.80;100795.00;;;;5089348;28;20312;-81
2023/08/31 07:07:39;;;;;;;5.32;4.72;;;18.10;67.60;19.80;100791.00;;;;5088430;28;20228;-80
2023/08/31 07:10:07;;;;;;;4.93;4.07;;;18.10;67.60;19.80;100789.00;;;;5079878;28;20203;-80
2023/08/31 07:12:34;;;;;;;4.80;4.35;;;18.10;67.70;19.80;100791.00;;;;5086164;28;20210;-81
2023/08/31 07:15:02;;;;;;;9.82;4.35;;;18.10;67.60;19.80;100798.00;;;;5081655;28;20202;-81
2023/08/31 07:17:29;;;;;;;6.32;4.15;;;18.10;67.50;19.80;100800.00;;;;5087764;28;20277;-81
2023/08/31 07:19:56;;;;;;;4.40;3.88;;;18.20;67.70;19.80;100812.00;;;;5088919;28;20214;-81
2023/08/31 07:22:24;;;;;;;6.05;4.53;;;18.10;67.70;19.80;100809.00;;;;5085341;28;20593;-81
2023/08/31 07:24:51;;;;;;;4.65;4.18;;;18.10;67.60;19.80;100808.00;;;;5084305;28;20223;-81
2023/08/31 07:27:18;;;;;;;4.65;3.88;;;18.20;68.30;19.80;100813.00;;;;5075177;28;20198;-81
2023/08/31 07:29:45;;;;;;;4.55;4.00;;;18.20;67.70;19.90;100813.00;;;;5074555;28;20233;-81
2023/08/31 07:32:12;;;;;;;5.07;4.25;;;18.20;67.70;19.90;100816.00;;;;5079260;28;20194;-81
2023/08/31 07:34:39;;;;;;;5.28;4.28;;;18.20;67.80;19.90;100805.00;;;;5077439;28;20195;-79
2023/08/31 07:37:06;;;;;;;5.20;3.88;;;18.20;67.70;19.90;100807.00;;;;5076939;28;21061;-79
2023/08/31 07:39:34;;;;;;;4.03;3.65;;;18.30;67.90;20.00;100803.00;;;;5083773;28;21027;-79
2023/08/31 07:42:02;;;;;;;4.70;4.13;;;18.30;67.90;20.00;100812.00;;;;5085117;28;20816;-79
2023/08/31 07:44:28;;;;;;;7.18;4.22;;;18.30;67.90;20.00;100823.00;;;;5086971;28;20279;-79
2023/08/31 07:46:55;;;;;;;5.00;4.05;;;18.30;67.90;20.00;100811.00;;;;5085795;28;20209;-79
2023/08/31 07:49:22;;;;;;;5.70;4.15;;;18.30;67.90;20.10;100821.00;;;;5081362;28;20201;-79
2023/08/31 07:51:49;;;;;;;4.78;3.67;;;18.40;68.10;20.10;100810.00;;;;5076630;28;20228;-79
2023/08/31 07:54:21;;;;;;;5.45;4.60;;;18.40;68.30;20.10;100817.00;;;;5076524;28;20198;-79
2023/08/31 07:56:50;;;;;;;3.58;3.28;;;18.40;68.50;20.30;100820.00;;;;5083849;28;20256;-79
2023/08/31 07:59:17;;;;;;;4.88;3.72;;;18.50;68.70;20.30;100819.00;;;;5085833;28;20968;-78
2023/08/31 08:01:44;;;;;;;3.78;3.03;;;18.60;68.80;20.40;100825.00;;;;5086594;28;20222;-79
2023/08/31 08:04:12;;;;;;;5.80;4.53;;;18.60;68.80;20.40;100830.00;;;;5079244;28;20223;-79
2023/08/31 08:06:39;;;;;;;5.50;3.78;;;18.70;68.70;20.50;100824.00;;;;5083780;28;20867;-79
2023/08/31 08:09:06;;;;;;;5.50;3.78;;;18.70;68.60;20.50;100823.00;;;;5085727;28;20202;-79
2023/08/31 08:11:35;;;;;;;4.90;3.75;;;18.80;68.50;20.50;100825.00;;;;5082514;28;20207;-79
2023/08/31 08:14:04;;;;;;;5.88;4.15;;;18.80;68.40;20.60;100823.00;;;;5084705;28;20578;-80
2023/08/31 08:16:31;;;;;;;4.95;3.45;;;18.90;68.50;20.70;100831.00;;;;5077736;28;20198;-79
2023/08/31 08:18:58;;;;;;;3.90;3.35;;;19.00;68.70;20.70;100823.00;;;;5083798;28;20198;-81
2023/08/31 08:21:25;;;;;;;4.85;3.70;;;19.00;68.90;20.80;100820.00;;;;5075860;28;20206;-80
2023/08/31 08:23:52;;;;;;;4.28;3.13;;;19.10;69.00;20.90;100828.00;;;;5077443;28;20198;-80
2023/08/31 08:26:19;;;;;;;4.15;2.90;;;19.20;69.10;21.00;100834.00;;;;5082845;28;20579;-79
2023/08/31 08:28:46;;;;;;;5.75;3.30;;;19.20;69.00;21.10;100831.00;;;;5086265;28;20194;-79
2023/08/31 08:31:14;;;;;;;3.60;3.28;;;19.30;69.10;21.20;100836.00;;;;5076728;28;20202;-80
2023/08/31 08:33:41;;;;;;;5.68;3.28;;;19.40;69.20;21.30;100846.00;;;;5081441;28;20664;-81
2023/08/31 08:36:08;;;;;;;4.47;3.13;;;19.50;69.20;21.40;100835.00;;;;5079540;28;20202;-80
2023/08/31 08:38:35;;;;;;;3.67;3.05;;;19.70;69.30;21.50;100839.00;;;;5072593;28;20206;-80
2023/08/31 08:41:06;;;;;;;5.15;2.95;;;19.70;69.30;21.50;100844.00;;;;5080699;28;20195;-81
2023/08/31 08:43:35;;;;;;;5.13;2.72;;;19.90;69.00;21.70;100845.00;;;;5082427;28;20194;-80
2023/08/31 08:46:07;;;;;;;2.97;2.42;;;19.90;68.70;21.70;100844.00;;;;5082188;28;20271;-80
2023/08/31 08:48:38;;;;;;;3.88;2.90;;;20.10;69.00;21.90;100849.00;;;;5078319;28;20668;-79
2023/08/31 08:51:07;;;;;;;3.35;2.33;;;20.20;68.90;22.00;100846.00;;;;5081482;28;20660;-81
2023/08/31 08:53:35;;;;;;;4.90;2.40;;;20.30;68.70;22.10;100852.00;;;;5080249;28;20230;-79
2023/08/31 08:56:02;;;;;;;3.42;1.80;;;20.40;68.60;22.30;100844.00;;;;5074163;28;20575;-80
2023/08/31 08:58:29;;;;;;;9.82;1.92;;;20.50;68.50;22.40;100833.00;;;;5080108;28;20191;-79
2023/08/31 09:00:57;;;;;;;9.25;2.05;;;20.60;68.20;22.50;100850.00;;;;5082969;28;20224;-79
2023/08/31 09:03:24;;;;;;;4.60;1.55;;;20.70;67.80;22.60;100845.00;;;;5075881;28;20198;-79
2023/08/31 09:05:53;;;;;;;3.25;1.67;;;20.90;67.70;22.60;100845.00;;;;5082577;28;20236;-80
2023/08/31 09:08:27;;;;;;;2.50;1.48;;;21.00;67.60;22.70;100844.00;;;;5076972;28;20191;-79
2023/08/31 09:10:58;;;;;;;3.95;1.30;;;21.10;67.00;22.80;100849.00;;;;5074197;28;20201;-80
2023/08/31 09:13:28;;;;;;;2.17;1.45;;;21.20;66.70;22.80;100839.00;;;;5081644;28;20240;-81
2023/08/31 09:15:56;;;;;;;1.95;1.73;;;21.30;66.30;22.90;100846.00;;;;5098905;28;20197;-81
2023/08/31 09:18:29;;;;;;;2.20;1.30;;;21.30;66.00;22.90;100847.00;;;;5083588;28;20258;-81
2023/08/31 09:20:58;;;;;;;1.75;1.13;;;21.40;65.50;22.90;100856.00;;;;5079557;28;20201;-81
2023/08/31 09:23:26;;;;;;;1.83;1.10;;;21.40;66.10;22.90;100851.00;;;;5076554;28;20281;-80
2023/08/31 09:25:55;;;;;;;1.35;0.85;;;21.40;65.10;23.00;100857.00;;;;5086228;28;20226;-81
2023/08/31 09:28:26;;;;;;;1.20;0.77;;;21.40;65.00;23.00;100852.00;;;;5084813;28;20199;-81
2023/08/31 09:30:53;;;;;;;1.63;0.95;;;21.40;65.10;23.10;100851.00;;;;5083490;28;20187;-80
2023/08/31 09:33:21;;;;;;;1.48;0.80;;;21.50;65.30;23.20;100849.00;;;;5072469;28;20259;-81
2023/08/31 09:35:53;;;;;;;3.70;1.13;;;21.60;65.40;23.30;100839.00;;;;5079514;28;20251;-80
2023/08/31 09:38:22;;;;;;;4.75;1.02;;;21.70;65.40;23.40;100861.00;;;;5080521;28;20199;-80
2023/08/31 09:40:49;;;;;;;1.38;0.60;;;21.80;65.20;23.50;100851.00;;;;5084616;28;20214;-81
2023/08/31 09:43:21;;;;;;;1.08;0.60;;;21.90;64.70;23.50;100856.00;;;;5084919;28;20190;-80
2023/08/31 09:45:49;;;;;;;1.42;0.57;;;22.00;64.00;23.60;100858.00;;;;5080694;28;20222;-79
2023/08/31 09:48:20;;;;;;;1.35;0.50;;;22.10;63.80;23.60;100856.00;;;;5085191;28;20278;-80
2023/08/31 09:50:49;;;;;;;1.50;0.50;;;22.10;62.90;23.70;100851.00;;;;5083251;28;20205;-81
2023/08/31 09:53:17;;;;;;;1.63;0.80;;;22.20;63.30;23.80;100851.00;;;;5078485;28;20226;-80
2023/08/31 09:55:49;;;;;;;2.35;0.68;;;22.30;62.20;23.80;100857.00;;;;5084418;28;20667;-80
2023/08/31 09:58:20;;;;;;;2.13;0.65;;;22.30;61.90;23.80;100861.00;;;;5079061;28;20384;-79
2023/08/31 10:00:50;;;;;;;2.17;0.55;;;22.40;61.60;23.90;100862.00;;;;5076552;28;20218;-80
2023/08/31 10:03:17;;;;;;;0.80;0.43;;;22.50;61.50;24.00;100855.00;;;;5075942;28;20199;-80
2023/08/31 10:05:46;;;;;;;1.88;0.75;;;22.50;61.20;24.10;100864.00;;;;5085110;28;20226;-80
2023/08/31 10:08:13;;;;;;;2.25;0.38;;;22.60;60.90;24.10;100856.00;;;;5087381;28;20295;-80
2023/08/31 10:10:41;;;;;;;0.88;0.28;;;22.60;60.90;24.20;100864.00;;;;5087112;28;20213;-80
2023/08/31 10:13:12;;;;;;;3.08;0.70;;;22.70;61.00;24.30;100862.00;;;;5085326;28;20206;-80
2023/08/31 10:15:39;;;;;;;2.58;0.60;;;22.80;60.60;24.40;100865.00;;;;5086310;28;20199;-79
2023/08/31 10:18:08;;;;;;;3.05;0.43;;;22.90;60.20;24.40;100871.00;;;;5089328;28;20196;-80
2023/08/31 10:20:36;;;;;;;2.00;0.50;;;23.00;59.60;24.40;100857.00;;;;5083755;28;21069;-80
2023/08/31 10:23:05;;;;;;;1.02;0.47;;;23.10;59.30;24.40;100865.00;;;;5085718;28;20205;-80
2023/08/31 10:26:05;;;;;;;1.83;0.50;;;23.10;59.10;24.40;100864.00;;;;5088655;28;20226;-80
2023/08/31 10:28:43;;;;;;;2.38;0.55;;;23.20;58.10;24.50;100875.00;;;;5080525;28;20244;-80
2023/08/31 10:31:17;;;;;;;0.60;0.32;;;23.20;58.40;24.60;100864.00;;;;5083557;28;20201;-82
2023/08/31 10:33:45;;;;;;;0.63;0.38;;;23.30;58.70;24.70;100867.00;;;;5079686;28;20338;-81
2023/08/31 10:36:16;;;;;;;0.93;0.40;;;23.40;58.60;24.70;100868.00;;;;5086945;28;20198;-80
2023/08/31 10:38:46;;;;;;;1.75;0.60;;;23.40;58.00;24.70;100870.00;;;;5078773;28;20191;-80
2023/08/31 10:41:23;;;;;;;2.15;0.47;;;23.40;58.00;24.60;100873.00;;;;5089346;28;20556;-80
2023/08/31 10:43:54;;;;;;;0.68;0.30;;;23.40;57.10;24.70;100872.00;;;;5083522;28;20308;-80
2023/08/31 10:46:33;;;;;;;1.50;0.57;;;23.50;57.30;24.70;100871.00;;;;5079357;28;20233;-80
2023/08/31 10:49:02;;;;;;;1.00;0.45;;;23.50;56.80;24.90;100869.00;;;;5077077;28;20182;-80
2023/08/31 10:51:32;;;;;;;2.45;0.40;;;23.60;57.20;24.90;100863.00;;;;5078022;28;20199;-80
2023/08/31 10:54:10;;;;;;;1.05;0.57;;;23.60;56.50;24.90;100871.00;;;;5080727;28;20303;-79